Time;durP1;ratioP1;P1;durP2;ratioP2;P2;SDS_P1;SDS_P2;PMS_P1;PMS_P2;Temp;Humidity;BMP_temperature;BMP_pressure;BME280_temperature;BME280_humidity;BME280_pressure;Samples;Min_cycle;Max_cycle;Signal;HPM_P1;HPM_P2
2023/04/01 00:01:46;;;;;;;;;;;17.80;55.30;;;;;;5071158;28;19920;-69
2023/04/01 00:04:11;;;;;;;;;;;17.80;55.30;;;;;;5072329;28;19920;-68
2023/04/01 00:06:37;;;;;;;;;;;17.80;55.30;;;;;;5073215;28;20410;-69
2023/04/01 00:09:02;;;;;;;;;;;17.80;55.30;;;;;;5092234;28;19970;-69
2023/04/01 00:11:28;;;;;;;;;;;17.80;55.30;;;;;;5074293;28;19920;-69
2023/04/01 00:13:53;;;;;;;;;;;17.70;55.30;;;;;;5092510;28;19920;-69
2023/04/01 00:16:19;;;;;;;;;;;17.80;55.40;;;;;;5092497;28;19924;-69
2023/04/01 00:18:46;;;;;;;;;;;17.70;55.40;;;;;;5074276;28;20299;-69
2023/04/01 00:21:12;;;;;;;;;;;17.70;55.30;;;;;;5074242;28;19965;-69
2023/04/01 00:23:38;;;;;;;;;;;17.70;55.40;;;;;;5074598;28;19920;-69
2023/04/01 00:26:03;;;;;;;;;;;17.80;55.50;;;;;;5074139;28;20411;-69
2023/04/01 00:28:29;;;;;;;;;;;17.70;55.40;;;;;;5074720;28;19969;-69
2023/04/01 00:30:55;;;;;;;;;;;17.70;55.50;;;;;;5096354;28;19924;-69
2023/04/01 00:33:20;;;;;;;;;;;17.70;56.20;;;;;;5078358;28;20006;-69
2023/04/01 00:35:46;;;;;;;;;;;17.70;55.50;;;;;;5078172;28;19924;-69
2023/04/01 00:38:11;;;;;;;;;;;17.70;55.60;;;;;;5096240;28;20019;-69
2023/04/01 00:40:39;;;;;;;;;;;17.60;55.60;;;;;;5095998;28;19965;-69
2023/04/01 00:43:11;;;;;;;;;;;17.60;55.60;;;;;;5096355;28;19920;-69
2023/04/01 00:45:41;;;;;;;;;;;17.60;55.70;;;;;;5078128;28;19920;-69
2023/04/01 00:48:26;;;;;;;;;;;17.60;55.70;;;;;;5077914;28;19921;-69
2023/04/01 00:50:55;;;;;;;;;;;17.60;55.70;;;;;;5077889;28;20459;-69
2023/04/01 00:53:21;;;;;;;;;;;17.60;55.80;;;;;;5095851;28;19963;-69
2023/04/01 00:55:51;;;;;;;;;;;17.60;55.80;;;;;;5096019;28;19923;-68
2023/04/01 00:58:18;;;;;;;;;;;17.60;55.80;;;;;;5077984;28;19963;-69
2023/04/01 01:00:45;;;;;;;;;;;17.50;55.80;;;;;;5077955;28;20347;-69
2023/04/01 01:03:12;;;;;;;;;;;17.60;55.80;;;;;;5077513;28;19923;-69
2023/04/01 01:05:45;;;;;;;;;;;17.50;55.80;;;;;;5077765;28;19943;-69
2023/04/01 01:08:17;;;;;;;;;;;17.50;55.80;;;;;;5077145;28;19924;-69
2023/04/01 01:10:47;;;;;;;;;;;17.50;55.90;;;;;;5095655;28;20352;-69
2023/04/01 01:15:59;;;;;;;;;;;17.40;55.90;;;;;;5110260;27;19938;-69
2023/04/01 01:21:19;;;;;;;;;;;17.50;56.00;;;;;;5110201;27;19919;-69
2023/04/01 01:26:44;;;;;;;;;;;17.50;56.00;;;;;;5110300;27;19912;-69
2023/04/01 01:29:16;;;;;;;;;;;17.50;56.00;;;;;;5108805;28;20438;-69
2023/04/01 01:34:36;;;;;;;;;;;17.40;56.00;;;;;;5110384;27;19918;-69
2023/04/01 01:37:06;;;;;;;;;;;17.40;56.00;;;;;;5108953;28;19920;-69
2023/04/01 01:39:33;;;;;;;;;;;17.40;56.10;;;;;;5108968;28;19919;-69
2023/04/01 01:42:02;;;;;;;;;;;17.40;56.10;;;;;;5108817;28;19927;-69
2023/04/01 01:44:29;;;;;;;;;;;17.40;56.10;;;;;;5108840;28;20062;-69
2023/04/01 01:46:56;;;;;;;;;;;17.40;56.10;;;;;;5109004;28;20410;-69
2023/04/01 01:49:22;;;;;;;;;;;17.40;56.10;;;;;;5108821;28;20007;-69
2023/04/01 01:51:48;;;;;;;;;;;17.40;56.10;;;;;;5108650;28;19972;-70
2023/04/01 01:54:14;;;;;;;;;;;17.40;56.10;;;;;;5108570;28;19923;-68
2023/04/01 01:56:41;;;;;;;;;;;17.40;56.20;;;;;;5110111;28;20287;-68
2023/04/01 01:59:08;;;;;;;;;;;17.40;56.20;;;;;;5108537;28;19926;-69
2023/04/01 02:01:38;;;;;;;;;;;17.30;56.10;;;;;;5108782;28;19973;-69
2023/04/01 02:04:04;;;;;;;;;;;17.30;56.10;;;;;;5108512;28;20387;-69
2023/04/01 02:06:32;;;;;;;;;;;17.40;56.20;;;;;;5108711;28;20009;-69
2023/04/01 02:09:02;;;;;;;;;;;17.40;56.30;;;;;;5109644;28;19920;-69
2023/04/01 02:11:31;;;;;;;;;;;17.30;56.20;;;;;;5109800;28;19927;-68
2023/04/01 02:14:01;;;;;;;;;;;17.40;56.20;;;;;;5108284;28;19989;-69
2023/04/01 02:16:31;;;;;;;;;;;17.30;56.20;;;;;;5108216;28;19969;-69
2023/04/01 02:18:57;;;;;;;;;;;17.30;57.00;;;;;;5109414;28;20003;-69
2023/04/01 02:21:25;;;;;;;;;;;17.30;56.20;;;;;;5109399;28;19943;-69
2023/04/01 02:23:52;;;;;;;;;;;17.30;56.20;;;;;;5108323;28;19920;-69
2023/04/01 02:26:18;;;;;;;;;;;17.30;56.20;;;;;;5109378;28;20268;-69
2023/04/01 02:28:45;;;;;;;;;;;17.30;56.20;;;;;;5109217;28;19927;-69
2023/04/01 02:31:11;;;;;;;;;;;17.30;56.30;;;;;;5109164;28;20395;-69
2023/04/01 02:33:37;;;;;;;;;;;17.30;56.20;;;;;;5107692;28;20031;-69
2023/04/01 02:36:03;;;;;;;;;;;17.20;56.20;;;;;;5108039;28;19920;-69
2023/04/01 02:38:29;;;;;;;;;;;17.30;56.20;;;;;;5107765;28;19970;-69
2023/04/01 02:40:58;;;;;;;;;;;17.30;56.30;;;;;;5109005;28;20320;-69
2023/04/01 02:43:24;;;;;;;;;;;17.20;56.20;;;;;;5109003;28;19919;-69
2023/04/01 02:45:50;;;;;;;;;;;17.20;56.20;;;;;;5093556;28;20010;-69
2023/04/01 02:48:15;;;;;;;;;;;17.20;56.20;;;;;;5095224;28;19920;-69
2023/04/01 02:50:40;;;;;;;;;;;17.20;56.20;;;;;;5094053;28;19920;-69
2023/04/01 02:53:06;;;;;;;;;;;17.20;56.20;;;;;;5094061;28;19928;-69
2023/04/01 02:55:32;;;;;;;;;;;17.20;56.20;;;;;;5094327;28;19921;-69
2023/04/01 02:57:58;;;;;;;;;;;17.20;56.30;;;;;;5095320;28;19963;-69
2023/04/01 03:00:23;;;;;;;;;;;17.20;56.20;;;;;;5094334;28;19973;-69
2023/04/01 03:02:49;;;;;;;;;;;17.20;56.20;;;;;;5095069;28;19927;-69
2023/04/01 03:05:14;;;;;;;;;;;17.20;56.30;;;;;;5093979;28;19931;-69
2023/04/01 03:07:40;;;;;;;;;;;17.30;56.30;;;;;;5094039;28;19970;-69
2023/04/01 03:10:06;;;;;;;;;;;17.20;56.30;;;;;;5095068;28;20375;-69
2023/04/01 03:12:31;;;;;;;;;;;17.20;56.30;;;;;;5093851;28;19924;-69
2023/04/01 03:14:57;;;;;;;;;;;17.20;56.30;;;;;;5093449;28;20363;-69
2023/04/01 03:17:22;;;;;;;;;;;17.20;56.30;;;;;;5093495;28;19920;-69
2023/04/01 03:19:48;;;;;;;;;;;17.20;56.30;;;;;;5094776;28;20344;-69
2023/04/01 03:22:13;;;;;;;;;;;17.20;56.30;;;;;;5093397;28;19921;-69
2023/04/01 03:24:39;;;;;;;;;;;17.20;56.30;;;;;;5093282;28;19928;-68
2023/04/01 03:27:04;;;;;;;;;;;17.20;56.30;;;;;;5093322;28;19923;-69
2023/04/01 03:29:30;;;;;;;;;;;17.20;56.30;;;;;;5094438;28;19920;-69
2023/04/01 03:31:57;;;;;;;;;;;17.10;56.20;;;;;;5093259;28;19920;-68
2023/04/01 03:34:23;;;;;;;;;;;17.10;56.30;;;;;;5093352;28;20283;-69
2023/04/01 03:36:49;;;;;;;;;;;17.10;56.20;;;;;;5093082;28;19920;-68
2023/04/01 03:39:18;;;;;;;;;;;17.20;56.30;;;;;;5094337;28;20019;-69
2023/04/01 03:41:44;;;;;;;;;;;17.20;56.30;;;;;;5094386;28;19927;-69
2023/04/01 03:44:10;;;;;;;;;;;17.20;56.30;;;;;;5092935;28;19920;-69
2023/04/01 03:46:35;;;;;;;;;;;17.20;56.30;;;;;;5092923;28;19927;-69
2023/04/01 03:49:01;;;;;;;;;;;17.20;56.30;;;;;;5093222;28;20015;-69
2023/04/01 03:51:26;;;;;;;;;;;17.10;56.30;;;;;;5092807;28;20290;-69
2023/04/01 03:53:52;;;;;;;;;;;17.10;56.20;;;;;;5093924;28;19970;-69
2023/04/01 03:56:17;;;;;;;;;;;17.10;56.30;;;;;;5091977;28;20279;-68
2023/04/01 03:58:43;;;;;;;;;;;17.10;56.30;;;;;;5094158;28;19959;-69
2023/04/01 04:03:56;;;;;;;;;;;17.10;56.30;;;;;;5110342;27;20382;-69
2023/04/01 04:06:22;;;;;;;;;;;17.10;56.30;;;;;;5109169;28;19920;-69
2023/04/01 04:08:47;;;;;;;;;;;17.10;56.30;;;;;;5109200;28;19932;-69
2023/04/01 04:11:13;;;;;;;;;;;17.10;56.30;;;;;;5108828;28;19970;-69
2023/04/01 04:13:39;;;;;;;;;;;17.10;56.30;;;;;;5109148;28;19927;-68
2023/04/01 04:16:05;;;;;;;;;;;17.10;56.30;;;;;;5108956;28;20294;-69
2023/04/01 04:18:30;;;;;;;;;;;17.10;56.30;;;;;;5108791;28;19927;-69
2023/04/01 04:20:56;;;;;;;;;;;17.10;56.30;;;;;;5108645;28;19963;-69
2023/04/01 04:23:21;;;;;;;;;;;17.10;56.30;;;;;;5108607;28;19924;-69
2023/04/01 04:25:55;;;;;;;;;;;17.10;56.40;;;;;;5108959;28;20417;-69
2023/04/01 04:28:21;;;;;;;;;;;17.00;56.30;;;;;;5108525;28;19920;-69
2023/04/01 04:30:46;;;;;;;;;;;17.10;56.30;;;;;;5108873;28;19927;-69
2023/04/01 04:33:12;;;;;;;;;;;17.10;56.40;;;;;;5109689;28;20394;-69
2023/04/01 04:35:37;;;;;;;;;;;17.10;56.40;;;;;;5109008;28;19931;-69
2023/04/01 04:38:03;;;;;;;;;;;17.10;56.40;;;;;;5108231;28;20383;-69
2023/04/01 04:40:28;;;;;;;;;;;17.10;56.40;;;;;;5108638;28;19927;-68
2023/04/01 04:42:54;;;;;;;;;;;17.00;56.30;;;;;;5109469;28;20375;-69
2023/04/01 04:45:19;;;;;;;;;;;17.00;56.30;;;;;;5109545;28;19973;-69
2023/04/01 04:47:45;;;;;;;;;;;17.00;56.30;;;;;;5108149;28;19920;-69
2023/04/01 04:50:11;;;;;;;;;;;17.00;56.30;;;;;;5108144;28;19920;-69
2023/04/01 04:52:37;;;;;;;;;;;17.00;56.30;;;;;;5109221;28;20363;-69
2023/04/01 04:55:02;;;;;;;;;;;17.00;56.30;;;;;;5108374;28;19973;-69
2023/04/01 04:57:28;;;;;;;;;;;17.00;56.40;;;;;;5108221;28;19920;-69
2023/04/01 04:59:53;;;;;;;;;;;17.00;56.30;;;;;;5108317;28;19974;-69
2023/04/01 05:02:19;;;;;;;;;;;17.00;56.40;;;;;;5116104;28;19924;-69
2023/04/01 05:04:44;;;;;;;;;;;17.00;56.40;;;;;;5129586;27;20340;-69
2023/04/01 05:07:10;;;;;;;;;;;17.00;56.30;;;;;;5111494;28;20015;-69
2023/04/01 05:09:36;;;;;;;;;;;17.00;56.40;;;;;;5111106;28;19927;-69
2023/04/01 05:12:01;;;;;;;;;;;17.00;56.40;;;;;;5111408;28;19921;-69
2023/04/01 05:14:27;;;;;;;;;;;17.00;56.40;;;;;;5101935;28;19966;-69
2023/04/01 05:16:54;;;;;;;;;;;17.00;56.40;;;;;;5097405;28;19920;-69
2023/04/01 05:19:19;;;;;;;;;;;17.00;56.40;;;;;;5097644;28;20363;-69
2023/04/01 05:21:45;;;;;;;;;;;17.00;56.40;;;;;;5097211;28;19924;-69
2023/04/01 05:24:10;;;;;;;;;;;17.00;56.40;;;;;;5115500;28;19992;-69
2023/04/01 05:26:36;;;;;;;;;;;17.00;56.40;;;;;;5097240;28;19926;-69
2023/04/01 05:29:03;;;;;;;;;;;17.00;56.40;;;;;;5097484;28;19920;-69
2023/04/01 05:31:29;;;;;;;;;;;17.00;56.50;;;;;;5097419;28;19920;-69
2023/04/01 05:33:54;;;;;;;;;;;17.00;56.40;;;;;;5115364;28;19943;-69
2023/04/01 05:36:20;;;;;;;;;;;17.00;56.40;;;;;;5115354;28;19965;-69
2023/04/01 05:38:46;;;;;;;;;;;17.00;56.40;;;;;;5115170;28;20439;-69
2023/04/01 05:41:11;;;;;;;;;;;17.00;56.40;;;;;;5097524;28;19988;-69
2023/04/01 05:43:38;;;;;;;;;;;16.90;56.40;;;;;;5096831;28;19928;-69
2023/04/01 05:46:04;;;;;;;;;;;16.90;56.40;;;;;;5097538;28;20271;-69
2023/04/01 05:48:29;;;;;;;;;;;16.90;56.40;;;;;;5096928;28;19919;-69
2023/04/01 05:50:55;;;;;;;;;;;16.90;56.40;;;;;;5096769;28;19921;-69
2023/04/01 05:53:20;;;;;;;;;;;16.90;56.40;;;;;;5096857;28;19926;-69
2023/04/01 05:55:46;;;;;;;;;;;16.90;56.50;;;;;;5096923;28;20439;-69
2023/04/01 05:58:11;;;;;;;;;;;16.90;56.40;;;;;;5096612;28;19945;-68
2023/04/01 06:00:37;;;;;;;;;;;16.90;56.40;;;;;;5114932;28;19966;-69
2023/04/01 06:03:02;;;;;;;;;;;16.90;56.40;;;;;;5096418;28;19931;-69
2023/04/01 06:05:29;;;;;;;;;;;16.90;56.50;;;;;;5096378;28;20313;-69
2023/04/01 06:07:57;;;;;;;;;;;16.90;56.40;;;;;;5096770;28;19967;-69
2023/04/01 06:10:31;;;;;;;;;;;16.90;56.50;;;;;;5130669;27;19920;-69
2023/04/01 06:13:02;;;;;;;;;;;16.90;56.50;;;;;;5096652;28;19923;-70
2023/04/01 06:18:31;;;;;;;;;;;16.90;56.50;;;;;;5089951;28;20283;-69
2023/04/01 06:21:04;;;;;;;;;;;16.90;56.40;;;;;;5105273;28;19920;-70
2023/04/01 06:26:30;;;;;;;;;;;16.90;56.50;;;;;;5110527;27;19913;-69
2023/04/01 06:31:46;;;;;;;;;;;16.90;56.60;;;;;;5089966;28;19912;-69
2023/04/01 06:34:20;;;;;;;;;;;16.80;56.50;;;;;;5088603;28;19927;-69
2023/04/01 06:37:06;;;;;;;;;;;16.80;56.50;;;;;;5089761;28;20019;-69
2023/04/01 06:39:38;;;;;;;;;;;16.80;56.50;;;;;;5088684;28;20352;-69
2023/04/01 06:45:07;;;;;;;;;;;16.90;56.60;;;;;;5110618;27;19912;-69
2023/04/01 06:47:39;;;;;;;;;;;16.80;56.50;;;;;;5108840;28;20337;-70
2023/04/01 06:52:50;;;;;;;;;;;16.80;56.60;;;;;;5089931;28;19912;-69
2023/04/01 06:55:37;;;;;;;;;;;16.90;56.60;;;;;;5089990;28;19963;-69
2023/04/01 06:58:04;;;;;;;;;;;16.80;56.60;;;;;;5088571;28;20000;-68
2023/04/01 07:00:35;;;;;;;;;;;16.90;57.40;;;;;;5088937;28;19920;-69
2023/04/01 07:03:15;;;;;;;;;;;16.80;56.60;;;;;;5088410;28;20034;-69
2023/04/01 07:05:41;;;;;;;;;;;16.90;56.60;;;;;;5088749;28;19921;-68
2023/04/01 07:08:10;;;;;;;;;;;16.90;56.70;;;;;;5088275;28;19949;-69
2023/04/01 07:21:28;;;;;;;;;;;16.80;56.70;;;;;;5089899;28;19919;-69
2023/04/01 07:23:56;;;;;;;;;;;16.90;56.70;;;;;;5088488;28;19920;-69
2023/04/01 07:26:23;;;;;;;;;;;16.80;56.70;;;;;;5088867;28;19920;-68
2023/04/01 07:28:50;;;;;;;;;;;16.90;56.70;;;;;;5088439;28;19920;-68
2023/04/01 07:31:36;;;;;;;;;;;16.80;56.70;;;;;;5088781;28;19925;-69
2023/04/01 07:36:43;;;;;;;;;;;16.80;56.70;;;;;;5110331;27;19912;-69
2023/04/01 07:39:20;;;;;;;;;;;16.80;56.70;;;;;;5110120;28;19965;-68
2023/04/01 07:42:06;;;;;;;;;;;16.80;56.70;;;;;;5108910;28;19920;-68
2023/04/01 07:44:52;;;;;;;;;;;16.80;56.70;;;;;;5108951;28;19965;-69
2023/04/01 07:53:02;;;;;;;;;;;16.80;56.80;;;;;;5110244;27;19934;-69
2023/04/01 07:55:36;;;;;;;;;;;16.90;56.90;;;;;;5108885;28;19920;-68
2023/04/01 07:58:08;;;;;;;;;;;16.80;56.80;;;;;;5108803;28;19941;-68
2023/04/01 08:00:40;;;;;;;;;;;16.80;56.90;;;;;;5109314;28;19920;-69
2023/04/01 08:03:25;;;;;;;;;;;16.80;56.90;;;;;;5108755;28;19920;-69
2023/04/01 08:08:41;;;;;;;;;;;16.80;56.90;;;;;;5108648;27;19918;-67
2023/04/01 08:14:12;;;;;;;;;;;16.80;57.20;;;;;;5088294;28;19912;-67
2023/04/01 08:19:31;;;;;;;;;;;16.90;57.60;;;;;;5108983;27;19912;-67
2023/04/01 08:21:58;;;;;;;;;;;17.00;57.80;;;;;;5108117;28;19927;-68
2023/04/01 08:24:27;;;;;;;;;;;17.00;57.90;;;;;;5107667;28;19920;-67
2023/04/01 08:26:55;;;;;;;;;;;17.00;57.90;;;;;;5108154;28;20390;-67
2023/04/01 08:29:22;;;;;;;;;;;17.00;58.00;;;;;;5107908;28;19920;-67
2023/04/01 08:31:57;;;;;;;;;;;17.10;58.10;;;;;;5109368;28;19927;-68
2023/04/01 08:34:24;;;;;;;;;;;17.10;58.20;;;;;;5090971;28;20248;-66
2023/04/01 08:36:53;;;;;;;;;;;17.10;58.20;;;;;;5108193;28;19919;-66
2023/04/01 08:39:28;;;;;;;;;;;17.10;58.20;;;;;;5109564;28;19920;-66
2023/04/01 08:42:07;;;;;;;;;;;17.10;58.20;;;;;;5109118;28;20363;-68
2023/04/01 08:44:52;;;;;;;;;;;17.10;58.20;;;;;;5107095;28;19934;-68
2023/04/01 08:47:25;;;;;;;;;;;17.20;58.20;;;;;;5106922;28;19986;-67
2023/04/01 08:52:58;;;;;;;;;;;17.20;58.20;;;;;;5109727;27;19912;-65
2023/04/01 08:55:31;;;;;;;;;;;17.20;58.20;;;;;;5107909;28;19920;-66
2023/04/01 08:58:07;;;;;;;;;;;17.30;58.30;;;;;;5108901;28;20051;-68
2023/04/01 09:00:38;;;;;;;;;;;17.30;58.30;;;;;;5108559;28;19920;-65
2023/04/01 09:06:04;;;;;;;;;;;17.30;58.30;;;;;;5089898;28;19912;-68
2023/04/01 09:11:22;;;;;;;;;;;17.30;58.30;;;;;;5109984;27;19918;-67
2023/04/01 09:16:55;;;;;;;;;;;17.30;58.40;;;;;;5089198;28;19912;-64
2023/04/01 09:19:25;;;;;;;;;;;17.20;58.50;;;;;;5088205;28;20010;-67
2023/04/01 09:24:35;;;;;;;;;;;17.30;58.70;;;;;;5089674;28;19918;-69
2023/04/01 09:27:03;;;;;;;;;;;17.20;58.60;;;;;;5089824;28;19920;-67
2023/04/01 09:29:48;;;;;;;;;;;17.40;58.80;;;;;;5088890;28;19920;-65
2023/04/01 09:32:25;;;;;;;;;;;17.30;58.80;;;;;;5088441;28;19920;-67
2023/04/01 09:34:54;;;;;;;;;;;17.30;58.80;;;;;;5087552;28;20368;-66
2023/04/01 09:37:39;;;;;;;;;;;17.30;58.80;;;;;;5087390;28;19920;-67
2023/04/01 09:43:12;;;;;;;;;;;17.30;58.90;;;;;;5109496;27;19918;-67
2023/04/01 09:45:58;;;;;;;;;;;17.30;58.90;;;;;;5109502;28;19920;-66
2023/04/01 09:48:33;;;;;;;;;;;17.40;58.90;;;;;;5108868;28;20335;-67
2023/04/01 09:51:08;;;;;;;;;;;17.40;59.00;;;;;;5107929;28;20006;-66
2023/04/01 09:59:17;;;;;;;;;;;17.30;58.80;;;;;;5089397;28;19912;-67
2023/04/01 10:02:03;;;;;;;;;;;17.40;58.90;;;;;;5099243;28;19920;-72
2023/04/01 10:04:43;;;;;;;;;;;17.40;59.00;;;;;;5088076;28;20015;-71
2023/04/01 10:07:28;;;;;;;;;;;17.40;59.00;;;;;;5087956;28;19971;-72
2023/04/01 10:12:42;;;;;;;;;;;17.50;59.00;;;;;;5109651;27;19912;-70
2023/04/01 10:15:29;;;;;;;;;;;17.50;59.00;;;;;;5108306;28;19970;-72
2023/04/01 10:20:46;;;;;;;;;;;17.50;59.10;;;;;;5089446;28;19913;-68
2023/04/01 10:23:31;;;;;;;;;;;17.50;59.10;;;;;;5087929;28;19920;-71
2023/04/01 10:29:02;;;;;;;;;;;17.70;59.30;;;;;;5089355;28;20273;-69
2023/04/01 10:34:28;;;;;;;;;;;17.70;59.30;;;;;;5105640;27;19912;-70
2023/04/01 10:36:55;;;;;;;;;;;17.70;59.30;;;;;;5107261;28;20434;-68
2023/04/01 10:42:19;;;;;;;;;;;17.70;59.40;;;;;;5108720;27;19916;-68
2023/04/01 10:47:35;;;;;;;;;;;17.80;59.10;;;;;;5108603;27;20295;-71
2023/04/01 10:53:02;;;;;;;;;;;17.80;58.80;;;;;;5109292;27;19912;-70
2023/04/01 11:01:23;;;;;;;;;;;17.70;58.50;;;;;;5129109;27;20293;-70
2023/04/01 11:09:18;;;;;;;;;;;17.60;58.40;;;;;;5109582;27;19912;-69
2023/04/01 11:14:41;;;;;;;;;;;17.60;58.50;;;;;;5109216;27;19960;-67
2023/04/01 11:20:06;;;;;;;;;;;17.70;58.50;;;;;;5089640;28;20279;-69
2023/04/01 11:22:52;;;;;;;;;;;17.60;58.50;;;;;;5088278;28;19924;-69
2023/04/01 11:25:37;;;;;;;;;;;17.70;58.50;;;;;;5087893;28;19921;-66
2023/04/01 11:33:36;;;;;;;;;;;17.80;58.50;;;;;;5109894;27;20260;-66
2023/04/01 11:39:04;;;;;;;;;;;17.80;58.60;;;;;;5110318;27;20283;-67
2023/04/01 11:44:18;;;;;;;;;;;17.80;58.60;;;;;;5110151;27;19912;-68
2023/04/01 11:49:44;;;;;;;;;;;17.80;58.60;;;;;;5110307;27;19918;-67
2023/04/01 11:52:17;;;;;;;;;;;17.80;58.60;;;;;;5108703;28;19924;-67
2023/04/01 12:08:53;;;;;;;;;;;17.70;58.20;;;;;;5089948;28;19934;-69
2023/04/01 12:11:23;;;;;;;;;;;17.60;58.20;;;;;;5088420;28;19927;-69
2023/04/01 12:13:53;;;;;;;;;;;17.60;58.20;;;;;;5088870;28;19920;-69
2023/04/01 12:16:35;;;;;;;;;;;17.50;58.20;;;;;;5089847;28;20367;-68
2023/04/01 12:19:19;;;;;;;;;;;17.50;58.30;;;;;;5088509;28;19932;-68
2023/04/01 12:24:35;;;;;;;;;;;17.40;58.30;;;;;;5110393;27;19919;-68
2023/04/01 12:27:21;;;;;;;;;;;17.30;58.20;;;;;;5109268;28;20326;-68
2023/04/01 12:32:38;;;;;;;;;;;17.30;58.30;;;;;;5110186;27;20375;-69
2023/04/01 12:38:07;;;;;;;;;;;17.20;58.30;;;;;;5110585;27;19912;-68
2023/04/01 12:43:26;;;;;;;;;;;17.20;58.30;;;;;;5110295;27;19922;-69
2023/04/01 12:46:03;;;;;;;;;;;17.20;58.40;;;;;;5108935;28;19920;-69
2023/04/01 12:48:48;;;;;;;;;;;17.10;58.30;;;;;;5109121;28;19927;-69
2023/04/01 12:59:24;;;;;;;;;;;17.00;58.30;;;;;;5089883;28;19919;-68
2023/04/01 13:01:59;;;;;;;;;;;17.10;58.40;;;;;;5088815;28;19920;-68
2023/04/01 13:04:45;;;;;;;;;;;17.10;58.40;;;;;;5088537;28;19921;-68
2023/04/01 13:13:08;;;;;;;;;;;16.90;58.40;;;;;;5110416;27;19913;-68
2023/04/01 13:15:54;;;;;;;;;;;17.00;58.40;;;;;;5108705;28;20394;-68
2023/04/01 13:18:39;;;;;;;;;;;17.00;58.50;;;;;;5108653;28;20014;-68
2023/04/01 13:26:31;;;;;;;;;;;16.90;58.40;;;;;;5110596;27;19912;-69
2023/04/01 13:29:02;;;;;;;;;;;16.90;58.40;;;;;;5110168;28;19920;-69
2023/04/01 13:31:47;;;;;;;;;;;16.90;58.40;;;;;;5109156;28;19927;-69
2023/04/01 13:34:24;;;;;;;;;;;16.90;58.40;;;;;;5108460;28;19920;-69
2023/04/01 13:39:57;;;;;;;;;;;16.90;58.40;;;;;;5110175;27;19912;-68
2023/04/01 13:42:26;;;;;;;;;;;16.90;58.40;;;;;;5108981;28;19920;-69
2023/04/01 13:44:56;;;;;;;;;;;16.90;58.40;;;;;;5109150;28;20359;-68
2023/04/01 13:58:23;;;;;;;;;;;16.80;58.40;;;;;;5110284;27;19913;-69
2023/04/01 14:06:18;;;;;;;;;;;16.80;58.40;;;;;;5130741;27;20003;-69
2023/04/01 14:09:04;;;;;;;;;;;16.80;58.40;;;;;;5129576;28;20402;-69
2023/04/01 14:20:10;;;;;;;;;;;16.80;58.30;;;;;;5110370;27;19918;-68
2023/04/01 14:22:56;;;;;;;;;;;16.80;58.40;;;;;;5109204;28;20424;-68
2023/04/01 14:25:27;;;;;;;;;;;16.80;58.40;;;;;;5108620;28;19926;-68
2023/04/01 14:28:04;;;;;;;;;;;16.70;58.30;;;;;;5109144;28;19959;-69
2023/04/01 14:30:35;;;;;;;;;;;16.70;58.30;;;;;;5108797;28;19927;-68
2023/04/01 14:38:27;;;;;;;;;;;16.70;58.30;;;;;;5110184;27;19912;-69
2023/04/01 14:46:23;;;;;;;;;;;16.70;58.30;;;;;;5110293;27;20272;-69
2023/04/01 14:51:38;;;;;;;;;;;16.70;58.30;;;;;;5089934;28;19913;-69
2023/04/01 14:56:50;;;;;;;;;;;16.60;58.30;;;;;;5124751;27;1844061;-69
2023/04/01 15:05:19;;;;;;;;;;;16.70;58.30;;;;;;5110440;27;19912;-69
2023/04/01 15:10:45;;;;;;;;;;;16.60;58.20;;;;;;5110330;27;19918;-68
2023/04/01 15:16:05;;;;;;;;;;;16.60;58.20;;;;;;5126934;27;1842135;-69
2023/04/01 15:18:38;;;;;;;;;;;16.60;58.10;;;;;;5174333;27;19957;-69
2023/04/01 15:21:10;;;;;;;;;;;16.60;58.10;;;;;;5159160;27;19919;-69
2023/04/01 15:26:36;;;;;;;;;;;16.60;58.10;;;;;;5089968;28;19913;-69
2023/04/01 15:29:21;;;;;;;;;;;16.60;58.10;;;;;;5088595;28;20010;-69
2023/04/01 15:34:34;;;;;;;;;;;16.60;58.10;;;;;;5109952;27;19922;-68
2023/04/01 15:37:02;;;;;;;;;;;16.60;58.20;;;;;;5109004;28;19924;-69
2023/04/01 15:44:55;;;;;;;;;;;16.50;58.10;;;;;;5110256;27;19913;-69
2023/04/01 15:50:22;;;;;;;;;;;16.50;58.10;;;;;;5089832;28;19913;-69
2023/04/01 15:53:07;;;;;;;;;;;16.50;58.10;;;;;;5088996;28;19967;-69
2023/04/01 15:55:52;;;;;;;;;;;16.50;58.10;;;;;;5088381;28;19951;-68
2023/04/01 16:01:09;;;;;;;;;;;16.50;58.00;;;;;;5089892;28;19913;-69
2023/04/01 16:03:54;;;;;;;;;;;16.50;58.00;;;;;;5089990;28;20401;-69
2023/04/01 16:06:40;;;;;;;;;;;16.50;58.00;;;;;;5088678;28;20016;-69
2023/04/01 16:09:25;;;;;;;;;;;16.50;58.00;;;;;;5088198;28;19921;-69
2023/04/01 16:12:11;;;;;;;;;;;16.50;58.00;;;;;;5105508;28;19974;-69
2023/04/01 16:14:48;;;;;;;;;;;16.50;58.00;;;;;;5088097;28;20375;-69
2023/04/01 16:17:27;;;;;;;;;;;16.50;58.00;;;;;;5088594;28;20315;-69
2023/04/01 16:19:55;;;;;;;;;;;16.40;57.90;;;;;;5088138;28;19925;-69
2023/04/01 16:22:25;;;;;;;;;;;16.40;57.90;;;;;;5089459;28;19924;-69
2023/04/01 16:25:11;;;;;;;;;;;16.40;57.90;;;;;;5089416;28;19921;-69
2023/04/01 16:27:44;;;;;;;;;;;16.40;57.90;;;;;;5089232;28;20465;-69
2023/04/01 16:30:29;;;;;;;;;;;16.40;57.90;;;;;;5088328;28;19994;-69
2023/04/01 16:33:13;;;;;;;;;;;16.40;57.90;;;;;;5087899;28;20007;-69
2023/04/01 16:35:43;;;;;;;;;;;16.40;57.90;;;;;;5088214;28;19920;-69
2023/04/01 16:38:12;;;;;;;;;;;16.40;57.90;;;;;;5087931;28;19920;-69
2023/04/01 16:40:44;;;;;;;;;;;16.40;57.80;;;;;;5089497;28;19924;-69
2023/04/01 16:43:13;;;;;;;;;;;16.30;57.80;;;;;;5088174;28;20363;-69
2023/04/01 16:45:58;;;;;;;;;;;16.40;57.80;;;;;;5087750;28;20387;-69
2023/04/01 16:48:28;;;;;;;;;;;16.30;57.80;;;;;;5087838;28;19920;-69
2023/04/01 16:51:13;;;;;;;;;;;16.30;57.80;;;;;;5087577;28;19921;-69
2023/04/01 16:53:59;;;;;;;;;;;16.30;57.70;;;;;;5087487;28;19927;-69
2023/04/01 16:56:27;;;;;;;;;;;16.30;57.80;;;;;;5087641;28;20268;-69
2023/04/01 17:04:19;;;;;;;;;;;16.30;57.70;;;;;;5110591;27;19918;-69
2023/04/01 17:06:49;;;;;;;;;;;16.20;58.40;;;;;;5109207;28;19998;-69
2023/04/01 17:09:21;;;;;;;;;;;16.30;57.80;;;;;;5108903;28;19931;-69
2023/04/01 17:11:53;;;;;;;;;;;16.30;57.70;;;;;;5109012;28;19920;-69
2023/04/01 17:14:38;;;;;;;;;;;16.20;57.70;;;;;;5109168;28;19920;-69
2023/04/01 17:22:52;;;;;;;;;;;16.30;57.70;;;;;;5110209;27;19918;-69
2023/04/01 17:25:38;;;;;;;;;;;16.20;57.70;;;;;;5109256;28;19920;-69
2023/04/01 17:28:23;;;;;;;;;;;16.20;57.70;;;;;;5108714;28;19920;-69
2023/04/01 17:31:02;;;;;;;;;;;16.20;57.70;;;;;;5108645;28;19920;-69
2023/04/01 17:33:47;;;;;;;;;;;16.20;57.70;;;;;;5108776;28;19924;-69
2023/04/01 17:36:21;;;;;;;;;;;16.20;57.70;;;;;;5109944;28;19924;-69
2023/04/01 17:39:06;;;;;;;;;;;16.20;57.70;;;;;;5108647;28;19924;-69
2023/04/01 17:41:42;;;;;;;;;;;16.10;57.60;;;;;;5108453;28;19924;-69
2023/04/01 17:44:27;;;;;;;;;;;16.20;57.70;;;;;;5108557;28;19920;-69
2023/04/01 17:52:24;;;;;;;;;;;16.10;57.60;;;;;;5089952;28;19913;-69
2023/04/01 17:57:53;;;;;;;;;;;16.10;57.60;;;;;;5110231;27;19912;-69
2023/04/01 18:05:52;;;;;;;;;;;16.10;57.50;;;;;;5110256;27;19912;-69
2023/04/01 18:08:26;;;;;;;;;;;16.20;57.50;;;;;;5108850;28;19950;-69
2023/04/01 18:17:04;;;;;;;;;;;16.00;57.40;;;;;;5110861;27;19912;-69
2023/04/01 18:22:28;;;;;;;;;;;16.00;57.30;;;;;;5110281;27;19918;-69
2023/04/01 18:25:04;;;;;;;;;;;16.00;57.30;;;;;;5109137;28;19920;-69
2023/04/01 18:27:33;;;;;;;;;;;16.00;57.30;;;;;;5109169;28;19928;-69
2023/04/01 18:30:02;;;;;;;;;;;16.00;57.30;;;;;;5109067;28;20165;-69
2023/04/01 18:35:16;;;;;;;;;;;16.00;57.30;;;;;;5089789;28;19922;-69
2023/04/01 18:37:47;;;;;;;;;;;16.00;57.30;;;;;;5088686;28;19924;-69
2023/04/01 18:40:20;;;;;;;;;;;16.00;57.30;;;;;;5088837;28;20391;-69
2023/04/01 18:42:59;;;;;;;;;;;15.90;57.20;;;;;;5088781;28;19928;-69
2023/04/01 18:45:30;;;;;;;;;;;16.00;57.30;;;;;;5088404;28;20399;-69
2023/04/01 18:50:38;;;;;;;;;;;15.90;57.20;;;;;;5110182;27;19918;-69
2023/04/01 18:53:23;;;;;;;;;;;15.90;57.10;;;;;;5109000;28;19962;-69
2023/04/01 18:55:52;;;;;;;;;;;15.90;57.10;;;;;;5108651;28;19921;-69
2023/04/01 19:01:04;;;;;;;;;;;15.90;57.10;;;;;;5110272;27;19912;-69
2023/04/01 19:03:34;;;;;;;;;;;15.90;57.10;;;;;;5108977;28;20002;-69
2023/04/01 19:06:01;;;;;;;;;;;15.90;57.10;;;;;;5109139;28;19927;-69
2023/04/01 19:08:35;;;;;;;;;;;15.80;57.00;;;;;;5110423;28;20264;-69
2023/04/01 19:11:21;;;;;;;;;;;15.80;57.00;;;;;;5108802;28;19931;-69
2023/04/01 19:19:42;;;;;;;;;;;15.80;56.90;;;;;;5128054;27;1849569;-69
2023/04/01 19:22:28;;;;;;;;;;;15.80;57.00;;;;;;5174221;27;19926;-69
2023/04/01 19:25:13;;;;;;;;;;;15.80;56.90;;;;;;5174196;27;19922;-69
2023/04/01 19:27:45;;;;;;;;;;;15.80;56.90;;;;;;5174240;27;19918;-69
2023/04/01 19:30:31;;;;;;;;;;;15.80;56.90;;;;;;5174340;27;19956;-69
2023/04/01 19:35:57;;;;;;;;;;;15.80;56.90;;;;;;5089853;28;19918;-69
2023/04/01 19:41:23;;;;;;;;;;;15.80;56.80;;;;;;5110208;27;20209;-69